createdAt,value
2022-11-05T00:00:40.807Z,53.29
2022-11-05T00:03:28.285Z,54.25
2022-11-05T00:06:14.284Z,53.87
2022-11-05T00:09:01.933Z,52.79
2022-11-05T00:11:48.598Z,53.05
2022-11-05T00:14:35.992Z,53.70
2022-11-05T00:17:04.653Z,53.57
2022-11-05T00:19:33.238Z,54.19
2022-11-05T00:22:20.113Z,54.08
2022-11-05T00:25:06.596Z,54.40
2022-11-05T00:27:35.854Z,55.54
2022-11-05T00:30:04.437Z,56.28
2022-11-05T00:32:33.856Z,54.84
2022-11-05T00:35:02.564Z,55.80
2022-11-05T00:37:32.017Z,55.76
2022-11-05T00:40:00.608Z,56.47
2022-11-05T00:42:47.653Z,55.18
2022-11-05T00:45:16.545Z,55.41
2022-11-05T00:48:03.350Z,55.13
2022-11-05T00:50:32.157Z,54.88
2022-11-05T00:53:02.128Z,55.23
2022-11-05T00:55:39.538Z,54.64
2022-11-05T00:58:11.181Z,54.74
2022-11-05T01:00:42.673Z,55.60
2022-11-05T01:03:16.689Z,55.49
2022-11-05T01:05:48.635Z,54.79
2022-11-05T01:08:18.268Z,55.61
2022-11-05T01:10:52.562Z,55.74
2022-11-05T01:13:24.033Z,54.47
2022-11-05T01:15:53.538Z,54.69
2022-11-05T01:18:23.968Z,54.82
2022-11-05T01:20:53.360Z,55.11
2022-11-05T01:23:22.342Z,54.79
2022-11-05T01:25:54.177Z,54.33
2022-11-05T01:28:23.316Z,54.86
2022-11-05T01:30:56.933Z,54.19
2022-11-05T01:33:25.140Z,54.51
2022-11-05T01:35:54.861Z,54.23
2022-11-05T01:38:23.757Z,54.60
2022-11-05T01:40:52.768Z,53.46
2022-11-05T01:43:25.365Z,55.01
2022-11-05T01:45:59.280Z,53.15
2022-11-05T01:48:35.626Z,54.79
2022-11-05T01:51:14.975Z,53.79
2022-11-05T01:54:06.430Z,52.98
2022-11-05T01:56:41.091Z,52.95
2022-11-05T01:59:22.750Z,52.58
2022-11-05T02:01:52.743Z,52.76
2022-11-05T02:04:33.942Z,52.65
2022-11-05T02:07:03.277Z,53.29
2022-11-05T02:09:38.075Z,53.03
2022-11-05T02:12:08.506Z,52.96
2022-11-05T02:14:37.199Z,52.26
2022-11-05T02:17:05.980Z,52.10
2022-11-05T02:19:46.326Z,52.45
2022-11-05T02:22:27.220Z,52.70
2022-11-05T02:25:15.927Z,51.65
2022-11-05T02:28:08.501Z,51.28
2022-11-05T02:31:03.145Z,51.99
2022-11-05T02:34:00.654Z,51.92
2022-11-05T02:36:40.804Z,51.79
2022-11-05T02:39:32.566Z,51.13
2022-11-05T02:42:15.535Z,51.39
2022-11-05T02:44:58.349Z,50.91
2022-11-05T02:47:29.556Z,51.55
2022-11-05T02:50:07.095Z,51.29
2022-11-05T02:52:50.415Z,51.23
2022-11-05T02:55:40.050Z,51.37
2022-11-05T02:58:08.955Z,52.44
2022-11-05T03:00:56.267Z,52.20
2022-11-05T03:03:34.496Z,51.65
2022-11-05T03:06:26.295Z,52.20
2022-11-05T03:08:58.487Z,52.20
2022-11-05T03:11:30.930Z,51.94
2022-11-05T03:14:25.227Z,52.51
2022-11-05T03:17:24.771Z,51.73
2022-11-05T03:20:25.543Z,53.18
2022-11-05T03:23:25.622Z,53.03
2022-11-05T03:25:59.797Z,53.85
2022-11-05T03:28:31.407Z,52.38
2022-11-05T03:31:00.781Z,52.79
2022-11-05T03:33:32.991Z,53.40
2022-11-05T03:36:06.860Z,53.65
2022-11-05T03:38:42.792Z,53.69
2022-11-05T03:41:15.100Z,54.08
2022-11-05T03:43:49.532Z,53.84
2022-11-05T03:46:26.261Z,54.08
2022-11-05T03:48:58.753Z,53.82
2022-11-05T03:51:42.070Z,54.42
2022-11-05T03:54:11.996Z,53.80
2022-11-05T03:57:10.032Z,54.30
2022-11-05T03:59:48.581Z,54.84
2022-11-05T04:02:20.040Z,54.05
2022-11-05T04:04:49.734Z,54.88
2022-11-05T04:07:37.077Z,55.82
2022-11-05T04:10:24.913Z,54.23
2022-11-05T04:13:12.368Z,54.83
2022-11-05T04:15:59.265Z,54.45
2022-11-05T04:18:28.097Z,54.95
2022-11-05T04:21:15.542Z,54.79
2022-11-05T04:24:02.334Z,54.76
2022-11-05T04:26:31.038Z,55.21
2022-11-05T04:29:18.100Z,55.28
2022-11-05T04:31:46.927Z,54.76
2022-11-05T04:34:15.996Z,55.58
2022-11-05T04:36:44.969Z,55.49
2022-11-05T04:39:13.380Z,54.05
2022-11-05T04:41:42.051Z,54.59
2022-11-05T04:44:10.677Z,55.38
2022-11-05T04:46:39.432Z,54.94
2022-11-05T04:49:07.439Z,54.73
2022-11-05T04:51:36.088Z,55.94
2022-11-05T04:54:05.001Z,55.68
2022-11-05T04:56:33.804Z,55.03
2022-11-05T04:59:02.687Z,56.15
2022-11-05T05:01:31.944Z,56.01
2022-11-05T05:04:00.670Z,55.32
2022-11-05T05:06:29.377Z,56.11
2022-11-05T05:08:58.129Z,55.76
2022-11-05T05:11:26.874Z,56.79
2022-11-05T05:13:55.597Z,56.48
2022-11-05T05:16:29.158Z,56.37
2022-11-05T05:18:57.546Z,56.75
2022-11-05T05:21:41.913Z,56.78
2022-11-05T05:24:16.539Z,57.95
2022-11-05T05:26:50.663Z,59.40
2022-11-05T05:29:20.199Z,59.42
2022-11-05T05:31:48.844Z,60.10
2022-11-05T05:34:17.039Z,60.12
2022-11-05T05:36:46.225Z,60.22
2022-11-05T05:39:14.955Z,61.09
2022-11-05T05:41:43.677Z,60.86
2022-11-05T05:44:12.433Z,61.49
2022-11-05T05:46:41.130Z,61.29
2022-11-05T05:49:13.002Z,61.97
2022-11-05T05:51:42.002Z,62.36
2022-11-05T05:54:12.763Z,63.01
2022-11-05T05:56:41.500Z,62.63
2022-11-05T05:59:10.239Z,62.55
2022-11-05T06:01:39.050Z,62.73
2022-11-05T06:04:08.025Z,63.15
2022-11-05T06:06:36.666Z,64.45
2022-11-05T06:09:06.176Z,64.93
2022-11-05T06:11:34.824Z,64.63
2022-11-05T06:14:03.799Z,65.00
2022-11-05T06:16:37.295Z,65.23
2022-11-05T06:19:05.634Z,65.78
2022-11-05T06:21:34.603Z,66.63
2022-11-05T06:24:04.595Z,67.53
2022-11-05T06:26:33.138Z,68.07
2022-11-05T06:29:02.300Z,68.71
2022-11-05T06:31:31.039Z,68.07
2022-11-05T06:33:59.693Z,67.94
2022-11-05T06:36:28.414Z,68.13
2022-11-05T06:38:57.141Z,67.91
2022-11-05T06:41:25.960Z,68.55
2022-11-05T06:43:54.603Z,67.67
2022-11-05T06:46:22.743Z,67.85
2022-11-05T06:48:52.553Z,67.81
2022-11-05T06:51:20.969Z,68.01
2022-11-05T06:53:50.142Z,67.55
2022-11-05T06:56:18.979Z,67.83
2022-11-05T06:58:47.709Z,67.54
2022-11-05T07:01:16.674Z,68.03
2022-11-05T07:03:47.074Z,67.76
2022-11-05T07:06:15.756Z,67.54
2022-11-05T07:08:44.647Z,67.54
2022-11-05T07:11:13.225Z,68.06
2022-11-05T07:13:41.912Z,68.22
2022-11-05T07:16:11.078Z,68.33
2022-11-05T07:18:39.833Z,68.38
2022-11-05T07:21:08.646Z,68.26
2022-11-05T07:23:36.783Z,67.88
2022-11-05T07:26:05.609Z,68.37
2022-11-05T07:28:34.239Z,68.55
2022-11-05T07:31:03.036Z,69.04
2022-11-05T07:33:36.334Z,69.33
2022-11-05T07:36:05.677Z,69.67
2022-11-05T07:38:34.302Z,69.92
2022-11-05T07:41:03.111Z,70.39
2022-11-05T07:43:31.961Z,70.24
2022-11-05T07:46:00.977Z,70.39
2022-11-05T07:48:29.659Z,70.42
2022-11-05T07:50:58.125Z,70.21
2022-11-05T07:53:26.866Z,70.13
2022-11-05T07:55:55.594Z,70.21
2022-11-05T07:58:24.022Z,69.85
2022-11-05T08:00:52.832Z,69.66
2022-11-05T08:03:21.949Z,69.73
2022-11-05T08:05:52.230Z,68.71
2022-11-05T08:08:21.938Z,69.00
2022-11-05T08:10:50.954Z,68.00
2022-11-05T08:13:19.812Z,68.34
2022-11-05T08:15:48.616Z,68.51
2022-11-05T08:18:18.651Z,68.95
2022-11-05T08:20:48.893Z,69.17
2022-11-05T08:23:18.035Z,69.72
2022-11-05T08:25:48.134Z,69.91
2022-11-05T08:28:17.056Z,69.90
2022-11-05T08:30:46.150Z,70.03
2022-11-05T08:33:15.096Z,70.13
2022-11-05T08:35:44.260Z,70.06
2022-11-05T08:38:16.201Z,69.70
2022-11-05T08:40:47.335Z,69.41
2022-11-05T08:43:16.081Z,69.02
2022-11-05T08:45:44.963Z,68.55
2022-11-05T08:48:19.062Z,68.07
2022-11-05T08:50:49.684Z,67.67
2022-11-05T08:53:18.598Z,67.80
2022-11-05T08:55:49.009Z,68.06
2022-11-05T08:58:18.468Z,68.16
2022-11-05T09:00:50.088Z,67.80
2022-11-05T09:03:19.664Z,67.56
2022-11-05T09:05:48.981Z,67.10
2022-11-05T09:08:21.012Z,67.68
2022-11-05T09:10:51.001Z,67.17
2022-11-05T09:13:20.760Z,67.18
2022-11-05T09:15:50.505Z,67.50
2022-11-05T09:18:20.233Z,67.55
2022-11-05T09:20:49.179Z,67.85
2022-11-05T09:23:18.341Z,67.75
2022-11-05T09:25:47.470Z,68.17
2022-11-05T09:28:19.734Z,67.80
2022-11-05T09:30:50.556Z,68.50
2022-11-05T09:33:21.027Z,68.63
2022-11-05T09:35:50.124Z,68.72
2022-11-05T09:38:19.163Z,68.98
2022-11-05T09:41:03.229Z,69.47
2022-11-05T09:43:52.079Z,69.99
2022-11-05T09:46:41.463Z,70.49
2022-11-05T09:49:22.314Z,71.15
2022-11-05T09:51:50.774Z,71.32
2022-11-05T09:54:19.422Z,71.39
2022-11-05T09:56:48.541Z,71.73
2022-11-05T10:00:03.471Z,72.31
2022-11-05T10:02:35.437Z,72.40
2022-11-05T10:05:13.559Z,73.13
2022-11-05T10:07:50.786Z,73.44
2022-11-05T10:10:52.639Z,73.84
2022-11-05T10:13:39.665Z,74.03
2022-11-05T10:16:28.489Z,74.24
2022-11-05T10:19:01.079Z,74.42
2022-11-05T10:21:59.669Z,74.77
2022-11-05T10:24:22.171Z,74.97
2022-11-05T10:26:56.460Z,75.30
2022-11-05T10:29:31.048Z,75.28
2022-11-05T10:32:01.678Z,75.43
2022-11-05T10:34:35.083Z,75.59
2022-11-05T10:37:04.182Z,75.63
2022-11-05T10:39:34.646Z,75.68
2022-11-05T10:42:35.114Z,75.64
2022-11-05T10:45:35.175Z,75.84
2022-11-05T10:48:17.722Z,75.60
2022-11-05T10:50:47.313Z,75.63
2022-11-05T10:53:28.686Z,75.76
2022-11-05T10:55:59.831Z,75.94
2022-11-05T10:58:32.276Z,75.95
2022-11-05T11:01:01.127Z,76.09
2022-11-05T11:03:43.552Z,75.77
2022-11-05T11:06:19.873Z,75.79
2022-11-05T11:08:51.139Z,75.72
2022-11-05T11:11:40.438Z,75.57
2022-11-05T11:14:15.091Z,75.68
2022-11-05T11:16:46.000Z,75.58
2022-11-05T11:19:31.434Z,75.27
2022-11-05T11:22:06.495Z,75.29
2022-11-05T11:24:45.144Z,75.40
2022-11-05T11:27:36.611Z,75.41
2022-11-05T11:30:07.272Z,75.36
2022-11-05T11:32:41.092Z,75.24
2022-11-05T11:35:23.034Z,75.41
2022-11-05T11:37:56.499Z,75.42
2022-11-05T11:40:38.210Z,75.47
2022-11-05T11:43:16.989Z,75.36
2022-11-05T11:45:57.334Z,75.62
2022-11-05T11:48:32.687Z,75.87
2022-11-05T11:51:16.003Z,75.89
2022-11-05T11:53:44.754Z,75.88
2022-11-05T11:56:18.128Z,75.76
2022-11-05T11:58:50.077Z,76.30
2022-11-05T12:01:33.775Z,76.25
2022-11-05T12:04:11.961Z,76.54
2022-11-05T12:06:58.277Z,76.40
2022-11-05T12:09:32.685Z,76.30
2022-11-05T12:12:17.274Z,76.22
2022-11-05T12:15:17.228Z,75.98
2022-11-05T12:18:05.285Z,76.19
2022-11-05T12:20:56.958Z,76.11
2022-11-05T12:23:46.707Z,76.05
2022-11-05T12:26:52.491Z,75.99
2022-11-05T12:29:30.151Z,75.64
2022-11-05T12:32:42.729Z,75.81
2022-11-05T12:35:25.896Z,75.76
2022-11-05T12:38:05.411Z,75.86
2022-11-05T12:40:37.311Z,76.08
2022-11-05T12:43:35.515Z,75.62
2022-11-05T12:46:35.697Z,75.57
2022-11-05T12:49:41.254Z,75.58
2022-11-05T12:52:43.661Z,75.43
2022-11-05T12:55:18.043Z,75.19
2022-11-05T12:57:53.587Z,75.13
2022-11-05T13:00:27.698Z,75.54
2022-11-05T13:03:20.742Z,75.58
2022-11-05T13:06:25.639Z,76.03
2022-11-05T13:09:12.973Z,76.06
2022-11-05T13:11:59.296Z,76.01
2022-11-05T13:14:35.212Z,75.97
2022-11-05T13:17:20.553Z,76.01
2022-11-05T13:20:04.913Z,75.82
2022-11-05T13:22:42.408Z,75.78
2022-11-05T13:25:25.484Z,75.81
2022-11-05T13:28:16.871Z,75.90
2022-11-05T13:30:53.192Z,75.89
2022-11-05T13:33:26.693Z,76.04
2022-11-05T13:36:17.487Z,75.90
2022-11-05T13:39:02.424Z,76.22
2022-11-05T13:41:45.701Z,76.12
2022-11-05T13:44:35.895Z,76.46
2022-11-05T13:47:10.342Z,76.54
2022-11-05T13:49:51.176Z,76.76
2022-11-05T13:52:43.747Z,76.20
2022-11-05T13:55:40.508Z,76.30
2022-11-05T13:58:42.581Z,76.33
2022-11-05T14:01:29.656Z,76.25
2022-11-05T14:03:58.646Z,76.18
2022-11-05T14:06:37.185Z,76.60
2022-11-05T14:09:11.614Z,76.42
2022-11-05T14:11:50.038Z,76.02
2022-11-05T14:14:28.573Z,75.99
2022-11-05T14:17:28.175Z,75.55
2022-11-05T14:20:06.126Z,75.74
2022-11-05T14:22:35.197Z,75.59
2022-11-05T14:25:24.401Z,75.50
2022-11-05T14:27:59.779Z,75.53
2022-11-05T14:30:49.073Z,75.37
2022-11-05T14:33:28.809Z,75.45
2022-11-05T14:36:22.154Z,75.71
2022-11-05T14:39:00.106Z,76.01
2022-11-05T14:41:32.782Z,76.50
2022-11-05T14:44:06.830Z,76.66
2022-11-05T14:46:48.409Z,76.92
2022-11-05T14:49:21.678Z,76.96
2022-11-05T14:51:54.450Z,76.97
2022-11-05T14:54:23.154Z,76.97
2022-11-05T14:56:58.624Z,77.05
2022-11-05T14:59:29.613Z,77.30
2022-11-05T15:02:03.346Z,77.58
2022-11-05T15:04:35.386Z,77.35
2022-11-05T15:07:04.057Z,77.34
2022-11-05T15:09:39.712Z,77.20
2022-11-05T15:12:21.296Z,76.94
2022-11-05T15:14:56.319Z,77.28
2022-11-05T15:17:31.102Z,77.40
2022-11-05T15:20:09.553Z,77.26
2022-11-05T15:22:52.448Z,77.33
2022-11-05T15:25:47.769Z,77.47
2022-11-05T15:28:40.210Z,77.38
2022-11-05T15:31:14.505Z,77.55
2022-11-05T15:33:45.205Z,77.57
2022-11-05T15:36:27.460Z,77.12
2022-11-05T15:39:27.406Z,77.43
2022-11-05T15:41:44.957Z,77.30
2022-11-05T15:44:27.479Z,77.03
2022-11-05T15:47:20.968Z,76.65
2022-11-05T15:49:56.693Z,76.01
2022-11-05T15:52:38.592Z,75.76
2022-11-05T15:55:14.172Z,75.72
2022-11-05T15:57:59.304Z,75.66
2022-11-05T16:00:33.618Z,75.21
2022-11-05T16:03:29.158Z,74.78
2022-11-05T16:05:58.701Z,74.63
2022-11-05T16:08:30.098Z,75.04
2022-11-05T16:11:02.136Z,74.52
2022-11-05T16:13:40.049Z,74.61
2022-11-05T16:16:32.640Z,74.19
2022-11-05T16:19:01.723Z,74.00
2022-11-05T16:21:30.564Z,74.06
2022-11-05T16:24:01.235Z,73.71
2022-11-05T16:27:01.181Z,73.52
2022-11-05T16:29:54.111Z,73.10
2022-11-05T16:32:31.061Z,72.97
2022-11-05T16:35:05.639Z,73.26
2022-11-05T16:37:50.699Z,73.18
2022-11-05T16:40:24.397Z,73.11
2022-11-05T16:42:55.325Z,73.10
2022-11-05T16:45:26.719Z,73.18
2022-11-05T16:47:55.445Z,72.98
2022-11-05T16:50:29.132Z,72.78
2022-11-05T16:52:58.185Z,72.98
2022-11-05T16:55:26.864Z,72.60
2022-11-05T16:57:57.035Z,72.55
2022-11-05T17:00:26.886Z,72.20
2022-11-05T17:02:56.185Z,71.68
2022-11-05T17:05:26.824Z,71.85
2022-11-05T17:07:56.290Z,71.37
2022-11-05T17:10:26.949Z,71.43
2022-11-05T17:12:55.803Z,71.38
2022-11-05T17:15:31.028Z,71.79
2022-11-05T17:18:00.010Z,71.88
2022-11-05T17:20:40.405Z,72.30
2022-11-05T17:23:18.524Z,71.76
2022-11-05T17:25:50.967Z,72.30
2022-11-05T17:28:20.769Z,72.41
2022-11-05T17:30:53.419Z,72.50
2022-11-05T17:33:23.794Z,72.28
2022-11-05T17:35:53.247Z,72.37
2022-11-05T17:38:23.007Z,72.59
2022-11-05T17:40:52.403Z,72.30
2022-11-05T17:43:21.707Z,72.34
2022-11-05T17:45:52.613Z,72.50
2022-11-05T17:48:24.553Z,72.44
2022-11-05T17:50:53.255Z,72.11
2022-11-05T17:53:22.172Z,72.36
2022-11-05T17:55:50.697Z,72.26
2022-11-05T17:58:19.411Z,72.40
2022-11-05T18:00:48.633Z,72.12
2022-11-05T18:03:17.448Z,72.28
2022-11-05T18:05:46.185Z,72.20
2022-11-05T18:08:14.354Z,72.01
2022-11-05T18:10:43.298Z,72.37
2022-11-05T18:13:12.564Z,72.41
2022-11-05T18:15:42.544Z,72.53
2022-11-05T18:18:11.851Z,71.92
2022-11-05T18:20:41.028Z,71.56
2022-11-05T18:23:09.850Z,71.72
2022-11-05T18:25:40.978Z,71.66
2022-11-05T18:28:10.424Z,71.72
2022-11-05T18:30:40.211Z,71.58
2022-11-05T18:33:09.681Z,71.17
2022-11-05T18:35:47.400Z,71.09
2022-11-05T18:38:16.212Z,70.92
2022-11-05T18:40:44.898Z,70.69
2022-11-05T18:43:14.135Z,70.99
2022-11-05T18:45:43.166Z,71.02
2022-11-05T18:48:12.031Z,71.20
2022-11-05T18:50:41.896Z,71.30
2022-11-05T18:53:10.621Z,71.28
2022-11-05T18:55:41.472Z,71.48
2022-11-05T18:58:10.583Z,71.27
2022-11-05T19:00:43.618Z,71.15
2022-11-05T19:03:12.328Z,71.46
2022-11-05T19:05:41.083Z,71.53
2022-11-05T19:08:10.021Z,71.92
2022-11-05T19:10:42.454Z,71.68
2022-11-05T19:13:11.218Z,71.91
2022-11-05T19:15:43.902Z,72.07
2022-11-05T19:18:13.472Z,73.81
2022-11-05T19:20:42.460Z,74.25
2022-11-05T19:23:11.234Z,73.28
2022-11-05T19:25:40.108Z,73.06
2022-11-05T19:28:08.775Z,72.44
2022-11-05T19:30:40.389Z,73.10
2022-11-05T19:33:09.027Z,72.64
2022-11-05T19:35:41.629Z,72.28
2022-11-05T19:38:10.603Z,72.23
2022-11-05T19:40:40.021Z,72.82
2022-11-05T19:43:08.756Z,73.05
2022-11-05T19:45:44.996Z,72.16
2022-11-05T19:48:19.133Z,71.35
2022-11-05T19:50:48.649Z,71.54
2022-11-05T19:53:17.357Z,70.86
2022-11-05T19:55:45.976Z,71.12
2022-11-05T19:58:15.033Z,71.46
2022-11-05T20:00:44.643Z,71.89
2022-11-05T20:03:14.290Z,73.06
2022-11-05T20:05:43.117Z,73.97
2022-11-05T20:08:12.317Z,74.29
2022-11-05T20:10:41.393Z,75.09
2022-11-05T20:13:13.114Z,75.11
2022-11-05T20:15:44.370Z,74.93
2022-11-05T20:18:13.424Z,74.75
2022-11-05T20:20:43.332Z,74.83
2022-11-05T20:23:12.622Z,74.72
2022-11-05T20:25:41.540Z,75.24
2022-11-05T20:28:10.780Z,75.01
2022-11-05T20:30:41.343Z,75.19
2022-11-05T20:33:10.243Z,75.19
2022-11-05T20:35:40.928Z,75.42
2022-11-05T20:38:09.825Z,75.76
2022-11-05T20:40:41.189Z,75.08
2022-11-05T20:43:10.169Z,74.75
2022-11-05T20:45:39.670Z,74.47
2022-11-05T20:48:08.231Z,74.59
2022-11-05T20:50:40.489Z,74.79
2022-11-05T20:53:09.915Z,74.60
2022-11-05T20:55:46.153Z,74.37
2022-11-05T20:58:16.510Z,74.16
2022-11-05T21:00:54.947Z,74.17
2022-11-05T21:03:24.214Z,73.96
2022-11-05T21:06:01.166Z,74.34
2022-11-05T21:08:30.870Z,74.33
2022-11-05T21:11:00.252Z,74.43
2022-11-05T21:13:29.211Z,74.58
2022-11-05T21:16:00.528Z,74.46
2022-11-05T21:18:32.952Z,74.80
2022-11-05T21:21:06.078Z,74.96
2022-11-05T21:23:34.337Z,74.99
2022-11-05T21:26:07.604Z,75.01
2022-11-05T21:28:38.615Z,74.70
2022-11-05T21:31:08.603Z,75.00
2022-11-05T21:33:37.300Z,75.27
2022-11-05T21:36:11.720Z,75.68
2022-11-05T21:38:41.295Z,76.01
2022-11-05T21:41:13.724Z,76.17
2022-11-05T21:43:43.858Z,75.99
2022-11-05T21:46:14.768Z,76.30
2022-11-05T21:48:43.459Z,76.53
2022-11-05T21:51:31.439Z,76.45
2022-11-05T21:54:18.902Z,75.85
2022-11-05T21:57:10.696Z,76.02
2022-11-05T22:00:05.610Z,75.37
2022-11-05T22:02:34.662Z,75.06
2022-11-05T22:05:03.892Z,75.12
2022-11-05T22:07:35.647Z,74.90
2022-11-05T22:10:06.111Z,74.93
2022-11-05T22:12:34.901Z,74.99
2022-11-05T22:15:03.633Z,75.17
2022-11-05T22:17:32.317Z,75.55
2022-11-05T22:20:01.119Z,75.09
2022-11-05T22:22:29.851Z,75.24
2022-11-05T22:24:59.071Z,75.39
2022-11-05T22:27:27.749Z,75.28
2022-11-05T22:29:56.521Z,75.62
2022-11-05T22:32:25.367Z,75.71
2022-11-05T22:34:54.293Z,76.25
2022-11-05T22:37:24.284Z,75.98
2022-11-05T22:39:53.256Z,75.98
2022-11-05T22:42:21.974Z,76.33
2022-11-05T22:44:50.455Z,76.35
2022-11-05T22:47:19.468Z,76.69
2022-11-05T22:49:51.272Z,76.33
2022-11-05T22:52:20.500Z,76.45
2022-11-05T22:54:49.270Z,76.13
2022-11-05T22:57:17.764Z,75.85
2022-11-05T22:59:46.451Z,75.99
2022-11-05T23:02:15.056Z,75.71
2022-11-05T23:04:43.922Z,75.91
2022-11-05T23:07:31.168Z,75.84
2022-11-05T23:10:18.120Z,75.68
2022-11-05T23:12:46.825Z,75.69
2022-11-05T23:15:35.557Z,75.45
2022-11-05T23:18:22.265Z,75.37
2022-11-05T23:21:09.833Z,75.00
2022-11-05T23:23:56.551Z,74.52
2022-11-05T23:26:43.333Z,74.04
2022-11-05T23:29:12.266Z,73.01
2022-11-05T23:31:59.563Z,71.95
2022-11-05T23:34:28.321Z,71.61
2022-11-05T23:37:15.620Z,70.75
2022-11-05T23:39:43.687Z,71.13
2022-11-05T23:42:31.165Z,70.89
2022-11-05T23:45:18.456Z,70.96
2022-11-05T23:48:05.701Z,70.35
2022-11-05T23:50:39.522Z,69.25
2022-11-05T23:53:09.333Z,68.66
2022-11-05T23:55:38.672Z,68.58
2022-11-05T23:58:08.844Z,67.83
